Time;durP1;ratioP1;P1;durP2;ratioP2;P2;SDS_P1;SDS_P2;PMS_P1;PMS_P2;Temp;Humidity;BMP_temperature;BMP_pressure;BME280_temperature;BME280_humidity;BME280_pressure;Samples;Min_cycle;Max_cycle;Signal;HPM_P1;HPM_P2
2021/04/24 00:00:39;;;;;;;8.05;4.30;;;5.00;99.90;;;;;;5075661;28;20497;-68
2021/04/24 00:03:07;;;;;;;9.27;3.65;;;4.90;99.90;;;;;;5075053;28;20428;-68
2021/04/24 00:05:38;;;;;;;10.68;4.60;;;4.90;99.90;;;;;;5075479;28;20445;-69
2021/04/24 00:08:06;;;;;;;11.85;4.20;;;4.80;99.90;;;;;;5075201;28;20103;-68
2021/04/24 00:10:35;;;;;;;12.48;4.30;;;4.80;99.90;;;;;;5075190;28;20028;-68
2021/04/24 00:13:03;;;;;;;13.98;5.05;;;4.80;99.90;;;;;;5074259;28;20040;-68
2021/04/24 00:15:28;;;;;;;9.48;4.47;;;4.80;99.90;;;;;;5075038;28;20457;-68
2021/04/24 00:17:54;;;;;;;8.15;3.70;;;4.70;99.90;;;;;;5073497;28;20028;-68
2021/04/24 00:20:22;;;;;;;13.90;4.38;;;4.80;99.90;;;;;;5075167;28;20081;-68
2021/04/24 00:22:48;;;;;;;10.93;4.72;;;4.70;99.90;;;;;;5075144;28;20059;-68
2021/04/24 00:25:14;;;;;;;9.95;3.90;;;4.70;99.90;;;;;;5075015;28;20462;-68
2021/04/24 00:27:39;;;;;;;7.85;4.00;;;4.70;99.90;;;;;;5075037;28;20031;-68
2021/04/24 00:30:08;;;;;;;9.27;4.50;;;4.60;99.90;;;;;;5072698;28;20035;-68
2021/04/24 00:32:35;;;;;;;10.63;3.95;;;4.50;99.90;;;;;;5089997;28;20024;-68
2021/04/24 00:35:01;;;;;;;9.55;3.67;;;4.40;99.90;;;;;;5073121;28;20474;-68
2021/04/24 00:37:26;;;;;;;12.63;3.88;;;4.40;99.90;;;;;;5074836;28;20093;-68
2021/04/24 00:39:52;;;;;;;10.98;4.20;;;4.30;99.90;;;;;;5074824;28;20025;-68
2021/04/24 00:42:18;;;;;;;10.73;3.38;;;4.20;99.90;;;;;;5089905;28;20097;-68
2021/04/24 00:44:48;;;;;;;9.13;3.92;;;4.20;99.90;;;;;;5073232;28;20052;-68
2021/04/24 00:47:14;;;;;;;10.60;4.15;;;4.30;99.90;;;;;;5073589;28;20017;-68
2021/04/24 00:49:40;;;;;;;8.85;3.83;;;4.20;99.90;;;;;;5074696;28;20450;-68
2021/04/24 00:52:06;;;;;;;9.52;4.20;;;4.20;99.90;;;;;;5074629;28;20024;-68
2021/04/24 00:54:32;;;;;;;13.80;4.35;;;4.10;99.90;;;;;;5072788;28;20448;-69
2021/04/24 00:56:58;;;;;;;8.23;3.53;;;3.90;99.90;;;;;;5074376;28;20111;-68
2021/04/24 00:59:23;;;;;;;9.95;3.85;;;3.90;99.90;;;;;;5073567;28;20059;-68
2021/04/24 01:01:49;;;;;;;11.45;4.75;;;3.80;99.90;;;;;;5074453;28;20093;-68
2021/04/24 01:04:15;;;;;;;11.05;4.35;;;3.70;99.90;;;;;;5074543;28;20446;-68
2021/04/24 01:06:40;;;;;;;6.35;3.92;;;3.70;99.90;;;;;;5056040;28;20025;-68
2021/04/24 01:09:06;;;;;;;8.63;4.13;;;3.70;99.90;;;;;;5074367;28;20021;-68
2021/04/24 01:11:31;;;;;;;11.10;4.32;;;3.60;99.90;;;;;;5074352;28;20453;-68
2021/04/24 01:13:57;;;;;;;12.00;4.25;;;3.60;99.90;;;;;;5074014;28;20087;-69
2021/04/24 01:16:23;;;;;;;7.55;4.00;;;3.50;99.90;;;;;;5073998;28;20481;-70
2021/04/24 01:18:48;;;;;;;9.07;4.10;;;3.40;99.90;;;;;;5074222;28;20064;-69
2021/04/24 01:21:17;;;;;;;13.45;3.97;;;3.40;99.90;;;;;;5073048;28;20411;-69
2021/04/24 01:23:43;;;;;;;10.30;4.18;;;3.30;99.90;;;;;;5073892;28;20028;-69
2021/04/24 01:26:09;;;;;;;9.20;3.78;;;3.20;99.90;;;;;;5072663;28;20028;-69
2021/04/24 01:28:35;;;;;;;8.85;4.00;;;3.20;99.90;;;;;;5074143;28;20374;-69
2021/04/24 01:31:01;;;;;;;10.10;4.43;;;3.10;99.90;;;;;;5089103;28;20025;-68
2021/04/24 01:33:27;;;;;;;14.60;4.90;;;3.10;99.90;;;;;;5074114;28;20378;-68
2021/04/24 01:35:53;;;;;;;14.68;4.68;;;3.00;99.90;;;;;;5073470;28;20104;-68
2021/04/24 01:38:19;;;;;;;9.68;4.05;;;3.00;99.90;;;;;;5072561;28;20059;-68
2021/04/24 01:40:45;;;;;;;9.77;4.80;;;2.90;99.90;;;;;;5073834;28;20039;-68
2021/04/24 01:43:11;;;;;;;12.15;4.70;;;2.90;99.90;;;;;;5073668;28;20378;-68
2021/04/24 01:45:37;;;;;;;11.95;4.40;;;2.90;99.90;;;;;;5073125;28;20516;-68
2021/04/24 01:48:06;;;;;;;14.65;3.92;;;2.80;99.90;;;;;;5073923;28;20451;-68
2021/04/24 01:50:35;;;;;;;9.55;4.47;;;2.80;99.90;;;;;;5073896;28;20021;-68
2021/04/24 01:53:06;;;;;;;10.05;4.50;;;2.70;99.90;;;;;;5073314;28;20017;-68
2021/04/24 01:55:34;;;;;;;14.77;4.50;;;2.70;99.90;;;;;;5089736;28;20377;-68
2021/04/24 01:58:02;;;;;;;9.98;4.65;;;2.60;99.90;;;;;;5073845;28;20142;-68
2021/04/24 02:00:32;;;;;;;13.95;4.80;;;2.60;99.90;;;;;;5073801;28;20033;-67
2021/04/24 02:03:00;;;;;;;9.43;4.70;;;2.60;99.90;;;;;;5088816;28;20035;-68
2021/04/24 02:05:27;;;;;;;15.02;5.15;;;2.50;99.90;;;;;;5073683;28;20127;-68
2021/04/24 02:07:56;;;;;;;10.82;4.95;;;2.50;99.90;;;;;;5073702;28;20477;-68
2021/04/24 02:10:22;;;;;;;12.15;5.10;;;2.40;99.90;;;;;;5073720;28;20021;-68
2021/04/24 02:12:49;;;;;;;11.82;4.97;;;2.40;99.90;;;;;;5073672;28;20036;-68
2021/04/24 02:15:16;;;;;;;13.10;4.97;;;2.30;99.90;;;;;;5089589;28;20074;-68
2021/04/24 02:17:41;;;;;;;12.50;4.95;;;2.30;99.90;;;;;;5073765;28;20028;-67
2021/04/24 02:20:07;;;;;;;14.30;4.57;;;2.30;99.90;;;;;;5072327;28;20028;-68
2021/04/24 02:22:33;;;;;;;12.25;5.50;;;2.20;99.90;;;;;;5073785;28;20025;-68
2021/04/24 02:25:00;;;;;;;13.35;4.95;;;2.20;99.90;;;;;;5072607;28;20040;-67
2021/04/24 02:27:27;;;;;;;13.73;4.90;;;2.10;99.90;;;;;;5073390;28;20089;-67
2021/04/24 02:29:54;;;;;;;12.75;5.03;;;2.10;99.90;;;;;;5073530;28;20017;-68
2021/04/24 02:32:23;;;;;;;10.57;4.82;;;2.10;99.90;;;;;;5072937;28;20101;-67
2021/04/24 02:34:50;;;;;;;12.25;4.60;;;2.00;99.90;;;;;;5072889;28;20039;-67
2021/04/24 02:37:17;;;;;;;10.07;4.97;;;2.00;99.90;;;;;;5073443;28;20032;-67
2021/04/24 02:39:45;;;;;;;18.48;5.25;;;2.00;99.90;;;;;;5072820;28;20109;-67
2021/04/24 02:42:14;;;;;;;12.95;5.47;;;2.00;99.90;;;;;;5073377;28;20143;-68
2021/04/24 02:44:41;;;;;;;11.98;5.55;;;1.90;99.90;;;;;;5088115;28;20052;-68
2021/04/24 02:47:08;;;;;;;14.18;5.75;;;1.90;99.90;;;;;;5073359;28;20021;-67
2021/04/24 02:49:34;;;;;;;14.32;5.50;;;1.90;99.90;;;;;;5073332;28;20021;-68
2021/04/24 02:52:01;;;;;;;16.48;5.38;;;1.80;99.90;;;;;;5071856;28;20048;-68
2021/04/24 02:54:27;;;;;;;15.77;5.05;;;1.80;99.90;;;;;;5076560;28;20095;-68
2021/04/24 02:56:52;;;;;;;14.65;5.50;;;1.70;99.90;;;;;;5091967;28;20429;-67
2021/04/24 02:59:18;;;;;;;10.63;5.20;;;1.70;99.90;;;;;;5076790;28;20028;-67
2021/04/24 03:01:45;;;;;;;11.35;5.05;;;1.70;99.90;;;;;;5076239;28;20039;-67
2021/04/24 03:04:11;;;;;;;12.20;5.75;;;1.60;99.90;;;;;;5076738;28;20020;-68
2021/04/24 03:06:37;;;;;;;10.55;5.50;;;1.60;99.90;;;;;;5076633;28;20024;-67
2021/04/24 03:09:03;;;;;;;17.88;6.25;;;1.60;99.90;;;;;;5076382;28;20032;-67
2021/04/24 03:11:29;;;;;;;15.15;5.25;;;1.60;99.90;;;;;;5074898;28;20032;-67
2021/04/24 03:13:55;;;;;;;13.95;5.68;;;1.60;99.90;;;;;;5076571;28;20028;-67
2021/04/24 03:16:21;;;;;;;11.15;5.45;;;1.50;99.90;;;;;;5075074;28;20025;-67
2021/04/24 03:18:46;;;;;;;14.05;6.00;;;1.50;99.90;;;;;;5074789;28;20245;-68
2021/04/24 03:21:12;;;;;;;13.70;6.60;;;1.50;99.90;;;;;;5076451;28;20024;-68
2021/04/24 03:23:38;;;;;;;15.25;6.43;;;1.50;99.90;;;;;;5076397;28;20044;-68
2021/04/24 03:26:03;;;;;;;14.13;5.28;;;1.50;99.90;;;;;;5076268;28;20489;-67
2021/04/24 03:28:29;;;;;;;11.02;4.97;;;1.50;99.90;;;;;;5091370;28;20024;-67
2021/04/24 03:30:54;;;;;;;15.95;6.20;;;1.50;99.90;;;;;;5075997;28;20104;-67
2021/04/24 03:33:20;;;;;;;13.93;5.35;;;1.40;99.90;;;;;;5075045;28;20052;-67
2021/04/24 03:35:46;;;;;;;13.20;6.32;;;1.40;99.90;;;;;;5075910;28;20020;-67
2021/04/24 03:38:12;;;;;;;12.18;5.40;;;1.40;99.90;;;;;;5075822;28;20469;-68
2021/04/24 03:40:37;;;;;;;14.68;5.90;;;1.30;99.90;;;;;;5075798;28;20363;-67
2021/04/24 03:43:03;;;;;;;15.48;5.65;;;1.30;99.90;;;;;;5076036;28;20086;-67
2021/04/24 03:45:30;;;;;;;12.25;5.65;;;1.30;99.90;;;;;;5075167;28;20501;-67
2021/04/24 03:47:56;;;;;;;14.57;5.90;;;1.30;99.90;;;;;;5074503;28;20070;-68
2021/04/24 03:50:24;;;;;;;17.17;6.03;;;1.30;99.90;;;;;;5075823;28;20017;-67
2021/04/24 03:52:50;;;;;;;21.95;5.97;;;1.20;99.90;;;;;;5075551;28;20029;-68
2021/04/24 03:55:17;;;;;;;19.00;6.70;;;1.20;99.90;;;;;;5075796;28;20025;-67
2021/04/24 03:57:44;;;;;;;17.75;6.10;;;1.20;99.90;;;;;;5075465;28;20069;-67
2021/04/24 04:00:12;;;;;;;12.32;6.05;;;1.20;99.90;;;;;;5075672;28;20038;-67
2021/04/24 04:02:56;;;;;;;17.73;7.10;;;1.20;99.90;;;;;;5075332;28;20021;-67
2021/04/24 04:05:24;;;;;;;18.50;5.80;;;1.20;99.90;;;;;;5057072;28;20032;-67
2021/04/24 04:07:50;;;;;;;13.10;6.60;;;1.20;99.90;;;;;;5075470;28;20153;-67
2021/04/24 04:10:17;;;;;;;14.57;6.13;;;1.20;99.90;;;;;;5075208;28;20045;-67
2021/04/24 04:12:43;;;;;;;13.60;5.50;;;1.20;99.90;;;;;;5075381;28;20040;-67
2021/04/24 04:15:11;;;;;;;14.88;6.50;;;1.10;99.90;;;;;;5073907;28;20028;-67
2021/04/24 04:17:38;;;;;;;14.63;6.28;;;1.10;99.90;;;;;;5073632;28;20063;-68
2021/04/24 04:20:06;;;;;;;15.93;6.50;;;1.10;99.90;;;;;;5074983;28;20081;-67
2021/04/24 04:22:32;;;;;;;12.80;6.45;;;1.10;99.90;;;;;;5091084;28;20024;-67
2021/04/24 04:24:58;;;;;;;12.73;5.82;;;1.10;99.90;;;;;;5075063;28;20094;-67
2021/04/24 04:27:23;;;;;;;12.50;5.93;;;1.10;99.90;;;;;;5073943;28;20078;-67
2021/04/24 04:29:49;;;;;;;14.98;6.22;;;1.20;99.90;;;;;;5072949;28;20032;-67
2021/04/24 04:32:15;;;;;;;16.98;6.65;;;1.20;99.90;;;;;;5073235;28;20035;-67
2021/04/24 04:34:40;;;;;;;20.38;7.38;;;1.20;99.90;;;;;;5073233;28;20059;-67
2021/04/24 04:37:06;;;;;;;19.17;7.30;;;1.30;99.90;;;;;;5073473;28;20115;-67
2021/04/24 04:39:31;;;;;;;18.67;6.88;;;1.30;99.90;;;;;;5074335;28;20029;-67
2021/04/24 04:41:57;;;;;;;17.83;6.25;;;1.40;99.90;;;;;;5074596;28;20051;-67
2021/04/24 04:44:22;;;;;;;16.23;7.25;;;1.40;99.90;;;;;;5074508;28;20029;-67
2021/04/24 04:46:48;;;;;;;18.80;6.40;;;1.50;99.90;;;;;;5074168;28;20028;-67
2021/04/24 04:49:14;;;;;;;17.05;6.88;;;1.60;99.90;;;;;;5074428;28;20039;-67
2021/04/24 04:51:39;;;;;;;17.60;7.15;;;1.70;99.90;;;;;;5074638;28;20016;-67
2021/04/24 04:54:05;;;;;;;21.40;6.35;;;1.80;99.90;;;;;;5072819;28;20029;-67
2021/04/24 04:56:31;;;;;;;15.00;6.55;;;1.90;99.90;;;;;;5089686;28;20028;-67
2021/04/24 04:58:56;;;;;;;13.57;6.80;;;2.10;99.90;;;;;;5074289;28;20470;-67
2021/04/24 05:01:22;;;;;;;19.73;6.80;;;2.20;99.90;;;;;;5073915;28;20028;-68
2021/04/24 05:03:47;;;;;;;19.13;7.43;;;2.30;99.90;;;;;;5074178;28;20021;-67
2021/04/24 05:06:13;;;;;;;16.08;6.85;;;2.40;99.90;;;;;;5072511;28;20371;-68
2021/04/24 05:08:38;;;;;;;21.40;6.85;;;2.60;99.90;;;;;;5074360;28;20485;-67
2021/04/24 05:11:05;;;;;;;15.95;6.63;;;3.00;99.90;;;;;;5074334;28;20036;-67
2021/04/24 05:13:31;;;;;;;17.95;6.78;;;3.20;99.90;;;;;;5074279;28;20017;-68
2021/04/24 05:15:56;;;;;;;17.83;6.47;;;3.40;99.90;;;;;;5072440;28;20073;-68
2021/04/24 05:18:22;;;;;;;14.55;6.28;;;3.50;99.90;;;;;;5089268;28;20029;-68
2021/04/24 05:20:48;;;;;;;13.30;6.32;;;3.80;99.90;;;;;;5073941;28;20145;-68
2021/04/24 05:23:13;;;;;;;15.63;5.97;;;3.90;99.90;;;;;;5090071;28;20423;-68
2021/04/24 05:25:39;;;;;;;18.50;6.40;;;4.30;99.90;;;;;;5073818;28;20034;-68
2021/04/24 05:28:05;;;;;;;14.52;6.07;;;4.70;99.90;;;;;;5073603;28;20016;-68
2021/04/24 05:30:31;;;;;;;15.40;6.05;;;5.20;99.90;;;;;;5074099;28;20032;-68
2021/04/24 05:32:58;;;;;;;12.18;5.78;;;5.50;99.90;;;;;;5073816;28;20454;-68
2021/04/24 05:35:24;;;;;;;15.38;6.85;;;5.90;99.90;;;;;;5073992;28;20021;-68
2021/04/24 05:37:50;;;;;;;17.73;6.75;;;6.60;99.90;;;;;;5073995;28;20063;-68
2021/04/24 05:40:16;;;;;;;18.52;7.15;;;7.50;99.90;;;;;;5073657;28;20051;-68
2021/04/24 05:42:42;;;;;;;16.83;7.07;;;8.50;99.90;;;;;;5073953;28;20123;-69
2021/04/24 05:45:10;;;;;;;16.73;6.60;;;8.70;99.90;;;;;;5055540;28;20128;-69
2021/04/24 05:47:38;;;;;;;14.82;6.88;;;9.30;99.90;;;;;;5088996;28;20034;-69
2021/04/24 05:50:05;;;;;;;16.92;7.43;;;10.20;99.90;;;;;;5073887;28;20027;-69
2021/04/24 05:52:31;;;;;;;15.02;7.63;;;10.70;99.90;;;;;;5072432;28;20020;-69
2021/04/24 05:54:56;;;;;;;15.95;8.30;;;10.60;99.90;;;;;;5073564;28;20123;-69
2021/04/24 05:57:22;;;;;;;15.50;8.05;;;10.30;99.90;;;;;;5073230;28;20096;-68
2021/04/24 05:59:47;;;;;;;15.70;8.90;;;9.20;99.90;;;;;;5072066;28;20024;-69
2021/04/24 06:02:13;;;;;;;20.98;8.27;;;9.10;99.90;;;;;;5073534;28;20096;-69
2021/04/24 06:04:38;;;;;;;22.17;9.05;;;9.30;99.90;;;;;;5073731;28;20070;-69
2021/04/24 06:07:04;;;;;;;18.13;8.50;;;9.20;99.90;;;;;;5073384;28;20029;-69
2021/04/24 06:09:29;;;;;;;18.35;8.60;;;9.90;99.90;;;;;;5072544;28;20025;-69
2021/04/24 06:11:55;;;;;;;15.43;8.02;;;10.00;99.90;;;;;;5073151;28;20066;-69
2021/04/24 06:14:21;;;;;;;18.15;8.77;;;9.20;99.90;;;;;;5073398;28;20397;-69
2021/04/24 06:16:46;;;;;;;15.60;8.27;;;9.30;99.90;;;;;;5071904;28;20029;-69
2021/04/24 06:19:12;;;;;;;20.40;8.35;;;9.60;99.90;;;;;;5073599;28;20028;-69
2021/04/24 06:21:37;;;;;;;17.75;8.68;;;10.80;99.90;;;;;;5073586;28;20027;-69
2021/04/24 06:24:03;;;;;;;19.55;7.80;;;10.90;99.90;;;;;;5088512;28;20115;-69
2021/04/24 06:26:29;;;;;;;15.90;8.07;;;11.10;99.90;;;;;;5072900;28;20413;-69
2021/04/24 06:28:55;;;;;;;14.60;8.02;;;12.40;99.90;;;;;;5057951;28;20031;-69
2021/04/24 06:31:20;;;;;;;18.55;7.70;;;11.00;99.90;;;;;;5075814;28;20025;-69
2021/04/24 06:33:46;;;;;;;15.35;8.15;;;11.20;99.90;;;;;;5077043;28;20081;-69
2021/04/24 06:36:11;;;;;;;14.75;7.05;;;10.50;99.90;;;;;;5075562;28;20494;-69
2021/04/24 06:38:37;;;;;;;14.13;7.40;;;10.60;99.90;;;;;;5076947;28;20020;-69
2021/04/24 06:41:02;;;;;;;13.70;7.53;;;10.30;99.90;;;;;;5077159;28;20021;-69
2021/04/24 06:43:28;;;;;;;14.50;7.40;;;10.20;99.90;;;;;;5076823;28;20101;-69
2021/04/24 06:45:53;;;;;;;17.40;7.72;;;10.10;99.90;;;;;;5076447;28;20474;-69
2021/04/24 06:48:19;;;;;;;16.48;7.07;;;10.30;99.90;;;;;;5077011;28;20017;-69
2021/04/24 06:50:44;;;;;;;19.77;8.35;;;11.30;99.90;;;;;;5075813;28;20021;-69
2021/04/24 06:53:10;;;;;;;15.82;7.22;;;11.50;99.90;;;;;;5076888;28;20033;-69
2021/04/24 06:55:36;;;;;;;12.80;6.70;;;11.70;99.90;;;;;;5076927;28;20021;-69
2021/04/24 06:58:01;;;;;;;13.48;6.90;;;12.30;99.90;;;;;;5076868;28;20029;-69
2021/04/24 07:00:27;;;;;;;17.20;7.95;;;12.70;99.90;;;;;;5076800;28;20540;-69
2021/04/24 07:02:52;;;;;;;13.32;7.05;;;13.30;99.90;;;;;;5076725;28;20127;-69
2021/04/24 07:05:18;;;;;;;13.32;6.18;;;13.70;99.90;;;;;;5076701;28;20056;-69
2021/04/24 07:07:44;;;;;;;9.23;5.40;;;12.90;99.90;;;;;;5074975;28;20017;-69
2021/04/24 07:10:11;;;;;;;13.82;6.53;;;12.80;99.90;;;;;;5076558;28;20055;-69
2021/04/24 07:12:37;;;;;;;15.43;6.47;;;12.20;99.90;;;;;;5076324;28;20017;-69
2021/04/24 07:15:05;;;;;;;11.30;5.78;;;13.10;99.90;;;;;;5076018;28;20044;-69
2021/04/24 07:17:30;;;;;;;15.32;6.53;;;11.80;99.90;;;;;;5092119;28;20017;-69
2021/04/24 07:19:56;;;;;;;12.98;6.47;;;12.60;99.90;;;;;;5076479;28;20100;-69
2021/04/24 07:22:21;;;;;;;15.65;6.85;;;12.70;99.90;;;;;;5076374;28;20408;-69
2021/04/24 07:24:47;;;;;;;14.88;6.00;;;12.10;99.90;;;;;;5076371;28;20033;-69
2021/04/24 07:27:14;;;;;;;13.52;6.55;;;12.40;99.90;;;;;;5076287;28;20453;-69
2021/04/24 07:29:40;;;;;;;12.20;6.15;;;12.70;99.90;;;;;;5076312;28;20477;-71
2021/04/24 07:32:06;;;;;;;15.70;6.43;;;12.60;99.90;;;;;;5076224;28;20024;-70
2021/04/24 07:34:33;;;;;;;11.07;5.95;;;11.80;99.90;;;;;;5075922;28;20027;-69
2021/04/24 07:36:59;;;;;;;10.57;6.15;;;10.70;99.90;;;;;;5074926;28;20394;-70
2021/04/24 07:39:24;;;;;;;11.50;6.07;;;10.20;99.90;;;;;;5075696;28;20035;-69
2021/04/24 07:41:50;;;;;;;11.05;5.15;;;10.90;99.90;;;;;;5074558;28;20024;-70
2021/04/24 07:44:15;;;;;;;10.52;4.90;;;12.70;99.90;;;;;;5075775;28;20021;-70
2021/04/24 07:46:41;;;;;;;12.13;5.75;;;12.40;99.90;;;;;;5075893;28;20031;-70
2021/04/24 07:49:07;;;;;;;14.65;6.10;;;10.90;99.90;;;;;;5075723;28;20393;-70
2021/04/24 07:51:32;;;;;;;11.85;6.38;;;10.50;99.90;;;;;;5075893;28;20450;-69
2021/04/24 07:53:58;;;;;;;10.60;5.45;;;11.60;99.90;;;;;;5075877;28;20020;-70
2021/04/24 07:56:23;;;;;;;9.98;5.15;;;12.10;99.90;;;;;;5074368;28;20482;-70
2021/04/24 07:58:49;;;;;;;11.02;5.47;;;12.60;99.90;;;;;;5075614;28;20496;-69
2021/04/24 08:01:14;;;;;;;9.38;4.45;;;12.00;99.90;;;;;;5075788;28;20032;-69
2021/04/24 08:03:40;;;;;;;8.60;5.13;;;11.50;99.90;;;;;;5074069;28;20032;-70
2021/04/24 08:06:06;;;;;;;7.80;4.80;;;12.30;99.90;;;;;;5075540;28;20373;-70
2021/04/24 08:08:32;;;;;;;15.90;5.68;;;13.50;99.90;;;;;;5075228;28;20013;-70
2021/04/24 08:10:57;;;;;;;12.40;5.60;;;14.60;99.90;;;;;;5075438;28;20029;-70
2021/04/24 08:13:23;;;;;;;10.07;5.22;;;14.40;99.90;;;;;;5090479;28;20032;-70
2021/04/24 08:15:49;;;;;;;11.23;4.47;;;15.10;99.90;;;;;;5075409;28;20024;-70
2021/04/24 08:18:15;;;;;;;8.75;4.63;;;14.00;99.90;;;;;;5075330;28;20021;-70
2021/04/24 08:20:40;;;;;;;12.93;5.55;;;14.30;99.90;;;;;;5075291;28;20035;-70
2021/04/24 08:23:06;;;;;;;9.05;4.82;;;15.20;99.90;;;;;;5075191;28;20374;-70
2021/04/24 08:25:32;;;;;;;9.05;5.30;;;15.20;99.70;;;;;;5075098;28;20028;-70
2021/04/24 08:27:58;;;;;;;11.30;5.15;;;14.60;99.90;;;;;;5075096;28;20032;-70
2021/04/24 08:30:23;;;;;;;9.32;4.80;;;13.80;99.90;;;;;;5075000;28;20031;-70
2021/04/24 08:32:50;;;;;;;9.90;4.97;;;13.50;99.90;;;;;;5090334;28;20079;-70
2021/04/24 08:35:16;;;;;;;7.82;4.68;;;13.60;99.90;;;;;;5090101;28;20427;-70
2021/04/24 08:37:44;;;;;;;8.90;4.28;;;15.10;97.20;;;;;;5074986;28;20016;-70
2021/04/24 08:40:13;;;;;;;5.65;3.40;;;15.70;92.50;;;;;;5090224;28;20024;-70
2021/04/24 08:42:40;;;;;;;9.00;4.43;;;15.40;79.50;;;;;;5074817;28;20029;-70
2021/04/24 08:45:14;;;;;;;8.27;4.88;;;13.90;94.90;;;;;;5074351;28;20047;-70
2021/04/24 08:47:44;;;;;;;9.45;4.32;;;14.50;97.50;;;;;;5074104;28;20355;-71
2021/04/24 08:50:12;;;;;;;8.63;4.20;;;15.60;95.40;;;;;;5073689;28;20036;-71
2021/04/24 08:52:40;;;;;;;13.38;4.80;;;16.10;89.60;;;;;;5089752;28;20074;-71
2021/04/24 08:55:06;;;;;;;8.88;4.43;;;16.70;85.50;;;;;;5073067;28;20017;-71
2021/04/24 08:57:34;;;;;;;6.15;4.70;;;15.90;89.30;;;;;;5074219;28;20381;-71
2021/04/24 09:00:00;;;;;;;9.50;4.45;;;17.20;85.10;;;;;;5073248;28;20021;-71
2021/04/24 09:02:25;;;;;;;10.07;4.68;;;17.40;69.80;;;;;;5072917;28;20096;-69
2021/04/24 09:04:51;;;;;;;8.10;4.65;;;18.00;70.30;;;;;;5074153;28;20025;-71
2021/04/24 09:07:17;;;;;;;7.10;4.32;;;17.80;63.70;;;;;;5074247;28;20118;-71
2021/04/24 09:09:42;;;;;;;6.03;4.10;;;18.50;58.90;;;;;;5074351;28;20027;-71
2021/04/24 09:12:08;;;;;;;8.35;3.80;;;17.20;65.80;;;;;;5072913;28;20020;-71
2021/04/24 09:14:35;;;;;;;5.85;4.13;;;17.80;61.10;;;;;;5074051;28;20017;-71
2021/04/24 09:17:00;;;;;;;7.85;4.10;;;16.80;63.40;;;;;;5074319;28;20032;-71
2021/04/24 09:22:21;;;;;;;5.18;3.58;;;15.30;74.10;;;;;;5132559;27;20395;-71
2021/04/24 09:24:51;;;;;;;5.07;3.20;;;13.20;88.00;;;;;;5132263;28;20032;-71
2021/04/24 09:27:18;;;;;;;8.57;3.85;;;12.60;93.50;;;;;;5096450;28;20032;-71
2021/04/24 09:29:43;;;;;;;5.10;2.63;;;13.30;93.80;;;;;;5132015;28;20525;-71
2021/04/24 09:32:17;;;;;;;7.60;3.60;;;14.80;86.50;;;;;;5113693;28;20032;-71
2021/04/24 09:34:45;;;;;;;;;;;15.40;79.90;;;;;;5132322;28;20361;-71
2021/04/24 09:37:25;;;;;;;6.13;3.92;;;15.80;71.50;;;;;;5132072;28;19910;-71
2021/04/24 09:39:53;;;;;;;9.15;3.80;;;17.20;66.50;;;;;;5131920;28;20020;-69
2021/04/24 09:42:39;;;;;;;7.35;3.13;;;17.50;62.80;;;;;;5131661;28;20012;-71
2021/04/24 09:45:25;;;;;;;4.88;3.58;;;17.30;60.80;;;;;;5113138;28;20026;-69
2021/04/24 09:47:51;;;;;;;6.40;3.75;;;18.40;60.10;;;;;;5131952;28;20024;-69
2021/04/24 09:50:20;;;;;;;7.50;4.13;;;18.30;58.30;;;;;;5131883;28;20088;-71
2021/04/24 09:52:46;;;;;;;7.63;3.63;;;18.60;58.40;;;;;;5131798;28;20072;-71
2021/04/24 09:55:34;;;;;;;5.15;3.63;;;18.80;55.60;;;;;;5131731;28;20028;-71
2021/04/24 09:58:00;;;;;;;9.43;3.95;;;16.50;57.40;;;;;;5131750;28;20016;-71
2021/04/24 10:00:27;;;;;;;6.88;4.32;;;15.10;65.20;;;;;;5131327;28;20032;-71
2021/04/24 10:02:53;;;;;;;8.05;4.28;;;14.70;76.10;;;;;;5131592;28;20038;-71
2021/04/24 10:05:21;;;;;;;7.75;4.20;;;16.50;69.30;;;;;;5130905;28;20020;-71
2021/04/24 10:07:50;;;;;;;9.27;4.40;;;17.30;61.10;;;;;;5112942;28;20030;-71
2021/04/24 10:10:24;;;;;;;7.30;4.57;;;16.10;63.10;;;;;;5112551;28;20027;-71
2021/04/24 10:12:58;;;;;;;9.98;4.32;;;16.40;64.60;;;;;;5131416;28;20479;-71
2021/04/24 10:15:42;;;;;;;7.50;3.78;;;16.40;64.40;;;;;;5112494;28;20086;-72
2021/04/24 10:18:09;;;;;;;7.50;3.80;;;17.90;59.30;;;;;;5113348;28;20154;-71
2021/04/24 10:20:37;;;;;;;6.88;4.35;;;17.80;59.00;;;;;;5130540;28;20166;-71
2021/04/24 10:23:07;;;;;;;10.05;4.30;;;18.30;56.40;;;;;;5131282;28;20024;-71
2021/04/24 10:25:34;;;;;;;6.32;4.50;;;18.50;55.90;;;;;;5113231;28;20016;-71
2021/04/24 10:27:59;;;;;;;7.20;4.75;;;17.40;58.70;;;;;;5130915;28;20027;-71
2021/04/24 10:30:25;;;;;;;7.95;4.97;;;16.00;67.90;;;;;;5131115;28;20031;-71
2021/04/24 10:32:53;;;;;;;8.20;5.53;;;15.20;77.10;;;;;;5120468;28;20023;-71
2021/04/24 10:35:19;;;;;;;9.93;4.93;;;15.60;77.70;;;;;;5117010;28;20030;-71
2021/04/24 10:37:46;;;;;;;9.60;4.70;;;16.60;72.30;;;;;;5098919;28;20024;-72
2021/04/24 10:40:13;;;;;;;8.40;4.75;;;17.40;68.70;;;;;;5117236;28;20444;-71
2021/04/24 10:42:41;;;;;;;8.02;4.88;;;17.60;60.50;;;;;;5098936;28;20020;-71
2021/04/24 10:45:07;;;;;;;8.20;5.20;;;17.20;63.30;;;;;;5117164;28;20099;-71
2021/04/24 10:47:44;;;;;;;7.20;4.75;;;17.00;62.20;;;;;;5117079;28;20016;-71
2021/04/24 10:50:22;;;;;;;9.90;5.18;;;16.40;67.00;;;;;;5117124;28;20024;-71
2021/04/24 10:52:50;;;;;;;8.70;5.25;;;16.50;68.90;;;;;;5117031;28;20108;-71
2021/04/24 10:55:20;;;;;;;9.13;5.30;;;16.30;64.80;;;;;;5116956;28;20023;-71
2021/04/24 11:00:25;;;;;;;9.52;5.75;;;16.30;63.00;;;;;;5090497;27;20444;-71
2021/04/24 11:02:54;;;;;;;10.63;5.72;;;16.10;74.10;;;;;;5090384;28;20032;-71
2021/04/24 11:05:26;;;;;;;11.32;6.30;;;15.90;72.20;;;;;;5091443;28;20074;-71
2021/04/24 11:08:15;;;;;;;9.65;5.47;;;16.40;78.40;;;;;;5089628;28;20025;-71
2021/04/24 11:10:43;;;;;;;10.13;6.10;;;16.10;76.10;;;;;;5089995;28;20123;-71
2021/04/24 11:13:12;;;;;;;11.27;5.95;;;15.00;76.40;;;;;;5090733;28;20056;-73
2021/04/24 11:15:40;;;;;;;11.05;5.22;;;14.20;88.50;;;;;;5090241;28;20412;-71
2021/04/24 11:18:08;;;;;;;12.27;6.07;;;14.40;87.50;;;;;;5090879;28;20024;-71
2021/04/24 11:20:56;;;;;;;10.48;5.43;;;14.80;86.70;;;;;;5090923;28;20108;-70
2021/04/24 11:23:41;;;;;;;11.45;6.13;;;14.70;89.70;;;;;;5090643;28;20016;-70
2021/04/24 11:26:28;;;;;;;12.85;6.10;;;14.40;91.30;;;;;;5072677;28;20024;-71
2021/04/24 11:29:06;;;;;;;9.00;5.38;;;14.20;91.90;;;;;;5090438;28;20036;-71
2021/04/24 11:31:54;;;;;;;12.48;5.40;;;14.00;88.40;;;;;;5090732;28;20020;-71
2021/04/24 11:34:29;;;;;;;7.72;5.20;;;14.70;83.40;;;;;;5090817;28;20107;-71
2021/04/24 11:40:18;;;;;;;12.25;6.80;;;13.90;88.00;;;;;;5110650;27;20439;-71
2021/04/24 11:42:57;;;;;;;11.65;6.00;;;13.70;92.10;;;;;;5111182;28;20024;-71
2021/04/24 11:45:44;;;;;;;11.65;6.55;;;13.90;93.20;;;;;;5111796;28;20020;-70
2021/04/24 11:48:09;;;;;;;17.67;5.60;;;14.00;92.20;;;;;;5111698;28;20020;-71
2021/04/24 11:50:38;;;;;;;10.45;5.53;;;14.30;91.70;;;;;;5111728;28;20085;-71
2021/04/24 11:53:03;;;;;;;7.70;5.65;;;14.80;87.90;;;;;;5111423;28;20020;-71
2021/04/24 11:55:29;;;;;;;9.35;5.00;;;14.90;78.50;;;;;;5111443;28;20031;-71
2021/04/24 11:58:03;;;;;;;10.73;5.60;;;14.70;82.10;;;;;;5111462;28;20039;-71
2021/04/24 12:00:29;;;;;;;11.25;5.90;;;14.10;84.20;;;;;;5093021;28;20020;-71
2021/04/24 12:02:55;;;;;;;10.13;5.55;;;14.40;88.20;;;;;;5111489;28;20099;-71
2021/04/24 12:05:21;;;;;;;10.88;6.13;;;14.70;87.40;;;;;;5111448;28;20062;-71
2021/04/24 12:07:48;;;;;;;9.23;5.38;;;14.70;89.20;;;;;;5111137;28;20028;-71
2021/04/24 12:10:14;;;;;;;11.07;5.40;;;15.30;91.20;;;;;;5109536;28;20027;-71
2021/04/24 12:12:43;;;;;;;12.35;6.07;;;15.60;85.00;;;;;;5111360;28;20368;-71
2021/04/24 12:15:13;;;;;;;10.65;6.53;;;15.10;83.30;;;;;;5110317;28;20024;-71
2021/04/24 12:17:58;;;;;;;12.20;5.82;;;15.60;83.30;;;;;;5109396;28;20460;-72
2021/04/24 12:20:27;;;;;;;10.30;5.47;;;15.20;76.70;;;;;;5110885;28;20193;-73
2021/04/24 12:22:54;;;;;;;10.00;5.53;;;14.70;71.10;;;;;;5111192;28;20452;-73
2021/04/24 12:25:22;;;;;;;8.50;5.68;;;14.40;72.50;;;;;;5110807;28;20457;-73
2021/04/24 12:27:49;;;;;;;11.13;5.80;;;14.00;80.10;;;;;;5110991;28;20031;-73
2021/04/24 12:30:19;;;;;;;13.18;6.50;;;14.60;82.80;;;;;;5109900;28;20441;-73
2021/04/24 12:32:48;;;;;;;9.38;6.30;;;14.90;78.10;;;;;;5109422;28;20055;-73
2021/04/24 12:35:35;;;;;;;12.25;6.30;;;15.10;84.60;;;;;;5109431;28;20103;-73
2021/04/24 12:38:05;;;;;;;13.07;5.88;;;14.90;84.50;;;;;;5109895;28;20040;-73
2021/04/24 12:40:34;;;;;;;11.38;6.15;;;14.70;81.20;;;;;;5110764;28;20424;-73
2021/04/24 12:43:08;;;;;;;9.65;5.97;;;14.90;85.00;;;;;;5110366;28;20062;-73
2021/04/24 12:45:37;;;;;;;10.95;6.32;;;14.70;79.10;;;;;;5110308;28;20024;-73
2021/04/24 12:48:05;;;;;;;10.52;5.82;;;14.80;75.70;;;;;;5110571;28;20051;-73
2021/04/24 12:50:41;;;;;;;12.40;5.78;;;15.10;72.40;;;;;;5101021;28;20111;-73
2021/04/24 12:53:09;;;;;;;11.55;5.57;;;14.90;73.20;;;;;;5096655;28;20028;-73
2021/04/24 12:55:39;;;;;;;10.18;5.93;;;14.80;70.90;;;;;;5096944;28;20020;-73